createdAt,value
2019-05-11T00:02:22.407Z,100748.56
2019-05-11T00:04:50.844Z,100746.08
2019-05-11T00:07:19.354Z,100745.02
2019-05-11T00:09:57.383Z,100748.54
2019-05-11T00:12:17.994Z,100752.15
2019-05-11T00:14:46.427Z,100754.36
2019-05-11T00:17:14.899Z,100761.73
2019-05-11T00:19:43.329Z,100750.55
2019-05-11T00:22:11.850Z,100745.88
2019-05-11T00:24:40.318Z,100736.89
2019-05-11T00:27:08.816Z,100742.66
2019-05-11T00:29:37.276Z,100742.94
2019-05-11T00:32:05.808Z,100753.84
2019-05-11T00:34:34.257Z,100748.14
2019-05-11T00:37:02.730Z,100744.07
2019-05-11T00:39:31.169Z,100737.48
2019-05-11T00:41:59.665Z,100738.58
2019-05-11T00:44:28.170Z,100735.58
2019-05-11T00:46:56.830Z,100730.10
2019-05-11T00:49:25.325Z,100731.48
2019-05-11T00:51:53.813Z,100727.89
2019-05-11T00:54:22.267Z,100726.27
2019-05-11T00:56:50.789Z,100728.16
2019-05-11T00:59:21.767Z,100719.95
2019-05-11T01:01:49.490Z,100714.23
2019-05-11T01:04:17.956Z,100701.70
2019-05-11T01:06:46.466Z,100701.97
2019-05-11T01:09:14.926Z,100694.09
2019-05-11T01:11:43.441Z,100695.20
2019-05-11T01:14:11.873Z,100692.19
2019-05-11T01:16:40.403Z,100687.26
2019-05-11T01:19:08.850Z,100689.44
2019-05-11T01:21:37.326Z,100685.64
2019-05-11T01:24:05.796Z,100685.66
2019-05-11T01:26:34.257Z,100691.11
2019-05-11T01:29:02.736Z,100696.84
2019-05-11T01:31:31.199Z,100705.59
2019-05-11T01:33:59.642Z,100709.68
2019-05-11T01:36:28.118Z,100706.98
2019-05-11T01:38:56.584Z,100706.12
2019-05-11T01:41:25.131Z,100697.98
2019-05-11T01:43:53.549Z,100700.70
2019-05-11T01:46:22.021Z,100697.39
2019-05-11T01:48:51.512Z,100701.21
2019-05-11T01:51:19.999Z,100702.31
2019-05-11T01:53:48.463Z,100699.36
2019-05-11T01:56:16.937Z,100687.07
2019-05-11T01:58:45.388Z,100678.33
2019-05-11T02:01:13.929Z,100679.17
2019-05-11T02:03:42.416Z,100685.48
2019-05-11T02:06:10.894Z,100679.47
2019-05-11T02:08:39.430Z,100670.75
2019-05-11T02:11:16.007Z,100674.85
2019-05-11T02:13:38.300Z,100662.02
2019-05-11T02:16:06.780Z,100653.02
2019-05-11T02:18:35.239Z,100652.73
2019-05-11T02:21:03.739Z,100653.31
2019-05-11T02:23:32.208Z,100652.48
2019-05-11T02:26:00.689Z,100662.84
2019-05-11T02:28:29.150Z,100647.30
2019-05-11T02:30:57.658Z,100652.21
2019-05-11T02:33:26.212Z,100651.66
2019-05-11T02:35:54.685Z,100654.92
2019-05-11T02:38:23.142Z,100660.93
2019-05-11T02:40:51.606Z,100663.95
2019-05-11T02:43:20.063Z,100653.28
2019-05-11T02:45:48.610Z,100657.66
2019-05-11T02:48:17.151Z,100662.30
2019-05-11T02:50:45.952Z,100666.12
2019-05-11T02:53:14.491Z,100671.58
2019-05-11T02:55:42.940Z,100677.05
2019-05-11T02:58:11.437Z,100682.22
2019-05-11T03:00:45.033Z,100680.59
2019-05-11T03:03:13.703Z,100686.32
2019-05-11T03:05:42.202Z,100685.48
2019-05-11T03:08:10.749Z,100683.03
2019-05-11T03:10:39.205Z,100688.75
2019-05-11T03:13:07.810Z,100695.03
2019-05-11T03:15:36.250Z,100694.48
2019-05-11T03:18:04.845Z,100699.12
2019-05-11T03:20:33.279Z,100700.77
2019-05-11T03:23:01.838Z,100699.41
2019-05-11T03:25:30.281Z,100703.23
2019-05-11T03:27:58.822Z,100711.40
2019-05-11T03:30:27.309Z,100698.03
2019-05-11T03:32:55.857Z,100698.86
2019-05-11T03:35:24.303Z,100702.97
2019-05-11T03:37:52.798Z,100700.50
2019-05-11T03:40:21.265Z,100701.31
2019-05-11T03:42:49.756Z,100702.67
2019-05-11T03:45:18.290Z,100698.05
2019-05-11T03:47:46.755Z,100701.33
2019-05-11T03:50:15.279Z,100699.12
2019-05-11T03:52:43.840Z,100689.83
2019-05-11T03:55:12.563Z,100697.73
2019-05-11T03:57:41.049Z,100698.27
2019-05-11T04:00:10.053Z,100697.45
2019-05-11T04:02:38.524Z,100699.64
2019-05-11T04:05:07.368Z,100701.53
2019-05-11T04:07:35.873Z,100704.53
2019-05-11T04:10:07.029Z,100704.51
2019-05-11T04:12:35.992Z,100707.80
2019-05-11T04:15:07.358Z,100707.48
2019-05-11T04:17:35.850Z,100702.01
2019-05-11T04:20:05.869Z,100702.58
2019-05-11T04:22:34.336Z,100709.92
2019-05-11T04:25:03.536Z,100706.45
2019-05-11T04:27:32.066Z,100710.73
2019-05-11T04:30:00.577Z,100722.13
2019-05-11T04:32:29.066Z,100719.66
2019-05-11T04:34:57.891Z,100720.14
2019-05-11T04:37:26.405Z,100718.23
2019-05-11T04:39:54.869Z,100714.98
2019-05-11T04:42:23.383Z,100719.87
2019-05-11T04:44:52.592Z,100720.62
2019-05-11T04:47:21.308Z,100711.23
2019-05-11T04:49:49.782Z,100717.34
2019-05-11T04:52:18.292Z,100715.14
2019-05-11T04:54:46.787Z,100715.69
2019-05-11T04:57:15.309Z,100714.01
2019-05-11T04:59:43.755Z,100711.27
2019-05-11T05:02:12.229Z,100709.81
2019-05-11T05:04:40.673Z,100709.14
2019-05-11T05:07:10.768Z,100704.27
2019-05-11T05:09:42.943Z,100710.78
2019-05-11T05:12:14.132Z,100713.88
2019-05-11T05:14:39.742Z,100711.69
2019-05-11T05:17:08.258Z,100714.31
2019-05-11T05:19:36.740Z,100707.36
2019-05-11T05:22:05.212Z,100709.48
2019-05-11T05:24:33.777Z,100709.02
2019-05-11T05:27:02.261Z,100704.59
2019-05-11T05:29:30.930Z,100702.28
2019-05-11T05:31:59.433Z,100702.98
2019-05-11T05:34:28.116Z,100709.98
2019-05-11T05:36:56.585Z,100702.52
2019-05-11T05:39:25.073Z,100708.11
2019-05-11T05:41:56.948Z,100705.97
2019-05-11T05:44:27.318Z,100706.91
2019-05-11T05:46:53.899Z,100708.59
2019-05-11T05:49:22.398Z,100707.48
2019-05-11T05:51:50.936Z,100715.54
2019-05-11T05:54:19.427Z,100709.97
2019-05-11T05:56:47.906Z,100720.51
2019-05-11T05:59:16.421Z,100714.78
2019-05-11T06:01:44.911Z,100715.94
2019-05-11T06:04:13.382Z,100718.87
2019-05-11T06:06:41.846Z,100712.75
2019-05-11T06:09:10.339Z,100712.66
2019-05-11T06:11:38.853Z,100714.95
2019-05-11T06:14:07.340Z,100708.49
2019-05-11T06:16:35.821Z,100703.96
2019-05-11T06:19:04.361Z,100713.29
2019-05-11T06:21:32.821Z,100719.91
2019-05-11T06:24:07.099Z,100717.92
2019-05-11T06:26:31.566Z,100720.27
2019-05-11T06:29:00.072Z,100722.25
2019-05-11T06:31:28.537Z,100718.33
2019-05-11T06:33:58.817Z,100713.23
2019-05-11T06:36:27.772Z,100718.59
2019-05-11T06:38:56.291Z,100719.31
2019-05-11T06:41:24.756Z,100716.27
2019-05-11T06:44:01.638Z,100717.65
2019-05-11T06:46:23.452Z,100715.16
2019-05-11T06:48:52.120Z,100712.73
2019-05-11T06:51:20.977Z,100712.47
2019-05-11T06:53:49.495Z,100717.27
2019-05-11T06:56:17.969Z,100719.17
2019-05-11T06:58:46.514Z,100718.25
2019-05-11T07:01:14.949Z,100722.86
2019-05-11T07:03:46.168Z,100726.16
2019-05-11T07:06:14.626Z,100721.00
2019-05-11T07:08:43.249Z,100719.79
2019-05-11T07:11:11.779Z,100715.13
2019-05-11T07:13:40.514Z,100708.72
2019-05-11T07:16:08.997Z,100704.11
2019-05-11T07:18:37.489Z,100708.92
2019-05-11T07:21:05.962Z,100699.80
2019-05-11T07:23:34.437Z,100699.08
2019-05-11T07:26:05.898Z,100703.29
2019-05-11T07:28:34.367Z,100703.03
2019-05-11T07:31:02.851Z,100698.73
2019-05-11T07:33:31.322Z,100696.39
2019-05-11T07:35:59.864Z,100697.86
2019-05-11T07:38:28.342Z,100705.33
2019-05-11T07:40:58.271Z,100702.48
2019-05-11T07:43:28.776Z,100703.33
2019-05-11T07:45:58.450Z,100705.64
2019-05-11T07:48:27.864Z,100695.70
2019-05-11T07:50:58.494Z,100695.53
2019-05-11T07:53:27.939Z,100703.72
2019-05-11T07:55:57.784Z,100704.87
2019-05-11T07:58:28.503Z,100701.11
2019-05-11T08:00:58.161Z,100697.19
2019-05-11T08:03:28.374Z,100695.91
2019-05-11T08:05:58.245Z,100698.67
2019-05-11T08:08:28.386Z,100692.20
2019-05-11T08:10:58.698Z,100687.28
2019-05-11T08:13:28.277Z,100690.95
2019-05-11T08:15:57.801Z,100693.98
2019-05-11T08:18:28.198Z,100695.41
2019-05-11T08:20:58.348Z,100677.98
2019-05-11T08:23:28.553Z,100678.95
2019-05-11T08:25:58.106Z,100677.22
2019-05-11T08:28:28.735Z,100676.83
2019-05-11T08:30:57.942Z,100673.06
2019-05-11T08:33:28.431Z,100673.56
2019-05-11T08:35:58.290Z,100677.16
2019-05-11T08:38:28.524Z,100684.06
2019-05-11T08:40:59.043Z,100681.45
2019-05-11T08:43:28.481Z,100692.67
2019-05-11T08:45:57.977Z,100682.54
2019-05-11T08:48:28.250Z,100690.34
2019-05-11T08:50:58.200Z,100686.56
2019-05-11T08:53:28.393Z,100687.48
2019-05-11T08:55:58.876Z,100684.88
2019-05-11T08:58:27.879Z,100686.25
2019-05-11T09:00:58.270Z,100686.00
2019-05-11T09:03:28.434Z,100676.67
2019-05-11T09:05:57.939Z,100680.05
2019-05-11T09:08:28.324Z,100679.09
2019-05-11T09:10:58.199Z,100689.64
2019-05-11T09:13:27.922Z,100682.20
2019-05-11T09:15:58.973Z,100676.25
2019-05-11T09:18:28.095Z,100680.64
2019-05-11T09:20:57.764Z,100679.73
2019-05-11T09:23:34.597Z,100683.14
2019-05-11T09:25:59.713Z,100681.06
2019-05-11T09:28:29.473Z,100684.86
2019-05-11T09:30:58.183Z,100686.65
2019-05-11T09:33:28.327Z,100680.38
2019-05-11T09:35:58.352Z,100678.44
2019-05-11T09:38:27.728Z,100685.95
2019-05-11T09:40:58.506Z,100688.09
2019-05-11T09:43:28.318Z,100685.55
2019-05-11T09:45:58.254Z,100686.77
2019-05-11T09:48:28.409Z,100686.66
2019-05-11T09:50:58.726Z,100689.98
2019-05-11T09:53:28.310Z,100682.26
2019-05-11T09:55:58.661Z,100684.86
2019-05-11T09:58:28.128Z,100678.47
2019-05-11T10:00:58.649Z,100676.30
2019-05-11T10:03:28.121Z,100680.16
2019-05-11T10:05:58.013Z,100673.63
2019-05-11T10:08:28.704Z,100685.44
2019-05-11T10:10:58.061Z,100677.06
2019-05-11T10:13:27.863Z,100683.95
2019-05-11T10:16:04.440Z,100676.69
2019-05-11T10:18:28.184Z,100678.88
2019-05-11T10:20:58.628Z,100678.38
2019-05-11T10:23:28.071Z,100685.08
2019-05-11T10:25:58.588Z,100685.51
2019-05-11T10:28:28.428Z,100683.92
2019-05-11T10:30:58.008Z,100684.16
2019-05-11T10:33:28.149Z,100688.53
2019-05-11T10:36:03.248Z,100685.09
2019-05-11T10:38:48.707Z,100683.73
2019-05-11T10:41:18.352Z,100687.98
2019-05-11T10:43:49.027Z,100683.03
2019-05-11T10:46:23.110Z,100682.28
2019-05-11T10:48:48.351Z,100684.30
2019-05-11T10:51:18.420Z,100681.75
2019-05-11T10:53:51.674Z,100682.14
2019-05-11T10:56:17.986Z,100676.89
2019-05-11T10:58:48.232Z,100672.94
2019-05-11T11:01:18.238Z,100679.06
2019-05-11T11:03:48.302Z,100676.05
2019-05-11T11:06:18.787Z,100681.01
2019-05-11T11:08:48.633Z,100678.42
2019-05-11T11:11:18.488Z,100670.23
2019-05-11T11:13:48.051Z,100676.08
2019-05-11T11:16:34.335Z,100675.82
2019-05-11T11:18:48.598Z,100665.77
2019-05-11T11:21:22.018Z,100666.53
2019-05-11T11:23:48.133Z,100667.39
2019-05-11T11:26:18.417Z,100669.13
2019-05-11T11:28:47.793Z,100671.77
2019-05-11T11:31:18.709Z,100668.72
2019-05-11T11:33:49.008Z,100673.12
2019-05-11T11:36:18.070Z,100675.80
2019-05-11T11:38:47.775Z,100671.20
2019-05-11T11:41:18.614Z,100672.06
2019-05-11T11:43:48.405Z,100672.20
2019-05-11T11:46:18.774Z,100668.31
2019-05-11T11:48:48.902Z,100668.34
2019-05-11T11:51:18.783Z,100672.78
2019-05-11T11:53:47.936Z,100675.09
2019-05-11T11:56:18.858Z,100666.57
2019-05-11T11:58:48.768Z,100669.83
2019-05-11T12:01:18.936Z,100671.86
2019-05-11T12:03:48.942Z,100671.16
2019-05-11T12:06:18.306Z,100678.39
2019-05-11T12:08:49.671Z,100681.83
2019-05-11T12:11:18.689Z,100681.68
2019-05-11T12:13:47.890Z,100681.45
2019-05-11T12:16:18.069Z,100675.20
2019-05-11T12:18:48.687Z,100675.67
2019-05-11T12:21:18.547Z,100674.95
2019-05-11T12:23:48.588Z,100690.23
2019-05-11T12:26:17.862Z,100680.48
2019-05-11T12:28:48.694Z,100683.71
2019-05-11T12:31:18.390Z,100676.56
2019-05-11T12:33:48.224Z,100682.34
2019-05-11T12:36:18.821Z,100681.05
2019-05-11T12:38:48.845Z,100672.67
2019-05-11T12:41:18.980Z,100674.96
2019-05-11T12:43:49.048Z,100677.22
2019-05-11T12:46:18.884Z,100676.81
2019-05-11T12:48:48.630Z,100676.48
2019-05-11T12:51:18.729Z,100687.25
2019-05-11T12:53:47.745Z,100685.91
2019-05-11T12:56:18.767Z,100683.48
2019-05-11T12:58:48.986Z,100686.31
2019-05-11T13:01:18.821Z,100690.10
2019-05-11T13:03:49.210Z,100689.78
2019-05-11T13:06:19.062Z,100691.28
2019-05-11T13:08:49.135Z,100689.64
2019-05-11T13:11:18.784Z,100689.56
2019-05-11T13:13:48.426Z,100688.41
2019-05-11T13:16:18.380Z,100690.80
2019-05-11T13:18:48.709Z,100690.22
2019-05-11T13:21:18.262Z,100686.98
2019-05-11T13:23:48.902Z,100692.84
2019-05-11T13:26:17.996Z,100696.63
2019-05-11T13:28:48.341Z,100699.42
2019-05-11T13:31:18.601Z,100695.98
2019-05-11T13:33:48.083Z,100699.91
2019-05-11T13:36:18.654Z,100704.39
2019-05-11T13:38:48.248Z,100702.52
2019-05-11T13:41:18.889Z,100706.08
2019-05-11T13:43:48.597Z,100708.12
2019-05-11T13:46:17.999Z,100707.27
2019-05-11T13:48:47.706Z,100708.70
2019-05-11T13:51:18.276Z,100707.02
2019-05-11T13:53:48.269Z,100718.31
2019-05-11T13:56:18.372Z,100720.89
2019-05-11T13:58:48.724Z,100723.83
2019-05-11T14:01:18.652Z,100721.94
2019-05-11T14:03:48.474Z,100722.41
2019-05-11T14:06:18.367Z,100721.06
2019-05-11T14:08:48.149Z,100724.81
2019-05-11T14:11:18.262Z,100722.16
2019-05-11T14:13:48.063Z,100731.67
2019-05-11T14:16:18.649Z,100727.80
2019-05-11T14:18:48.852Z,100737.39
2019-05-11T14:21:18.552Z,100727.20
2019-05-11T14:23:48.404Z,100735.20
2019-05-11T14:26:19.231Z,100735.73
2019-05-11T14:28:48.111Z,100741.99
2019-05-11T14:31:18.889Z,100739.45
2019-05-11T14:33:48.935Z,100743.81
2019-05-11T14:36:18.480Z,100750.05
2019-05-11T14:38:48.810Z,100764.22
2019-05-11T14:41:18.207Z,100760.83
2019-05-11T14:43:49.040Z,100759.70
2019-05-11T14:46:18.263Z,100756.27
2019-05-11T14:48:48.159Z,100764.42
2019-05-11T14:51:18.094Z,100767.73
2019-05-11T14:53:48.140Z,100772.90
2019-05-11T14:56:18.961Z,100772.50
2019-05-11T14:58:49.249Z,100776.08
2019-05-11T15:01:18.393Z,100771.55
2019-05-11T15:03:48.718Z,100776.36
2019-05-11T15:06:18.802Z,100784.91
2019-05-11T15:08:48.025Z,100779.59
2019-05-11T15:11:18.858Z,100786.14
2019-05-11T15:13:48.806Z,100790.05
2019-05-11T15:16:18.679Z,100792.57
2019-05-11T15:18:48.557Z,100798.02
2019-05-11T15:21:18.962Z,100801.66
2019-05-11T15:23:47.956Z,100813.80
2019-05-11T15:26:18.508Z,100823.73
2019-05-11T15:28:48.660Z,100819.89
2019-05-11T15:31:21.893Z,100818.70
2019-05-11T15:33:48.869Z,100821.47
2019-05-11T15:36:19.175Z,100826.73
2019-05-11T15:38:48.097Z,100824.39
2019-05-11T15:41:17.757Z,100824.66
2019-05-11T15:43:48.034Z,100818.83
2019-05-11T15:46:19.403Z,100821.32
2019-05-11T15:48:56.737Z,100833.70
2019-05-11T15:51:18.848Z,100837.86
2019-05-11T15:53:50.264Z,100832.33
2019-05-11T15:56:19.088Z,100833.77
2019-05-11T15:58:48.579Z,100838.92
2019-05-11T16:01:18.688Z,100839.97
2019-05-11T16:03:50.136Z,100843.08
2019-05-11T16:06:18.512Z,100853.89
2019-05-11T16:08:47.459Z,100861.62
2019-05-11T16:11:18.082Z,100858.87
2019-05-11T16:13:48.370Z,100852.10
2019-05-11T16:16:16.457Z,100848.80
2019-05-11T16:18:45.012Z,100854.19
2019-05-11T16:21:13.463Z,100850.59
2019-05-11T16:23:42.061Z,100853.97
2019-05-11T16:26:10.565Z,100846.81
2019-05-11T16:28:39.070Z,100851.13
2019-05-11T16:31:09.145Z,100851.26
2019-05-11T16:33:37.950Z,100852.05
2019-05-11T16:36:09.003Z,100853.07
2019-05-11T16:38:37.966Z,100853.74
2019-05-11T16:41:09.077Z,100852.05
2019-05-11T16:43:38.562Z,100848.89
2019-05-11T16:46:08.690Z,100851.44
2019-05-11T16:48:38.307Z,100855.67
2019-05-11T16:51:08.736Z,100854.30
2019-05-11T16:53:39.016Z,100864.56
2019-05-11T16:56:08.429Z,100879.95
2019-05-11T16:58:40.612Z,100888.45
2019-05-11T17:01:08.636Z,100890.86
2019-05-11T17:03:38.430Z,100893.56
2019-05-11T17:06:08.300Z,100896.17
2019-05-11T17:08:38.302Z,100897.07
2019-05-11T17:11:08.198Z,100893.73
2019-05-11T17:13:37.930Z,100892.89
2019-05-11T17:16:08.710Z,100888.24
2019-05-11T17:18:37.016Z,100886.31
2019-05-11T17:21:07.601Z,100888.83
2019-05-11T17:23:38.100Z,100888.59
2019-05-11T17:26:08.494Z,100898.44
2019-05-11T17:28:37.945Z,100920.11
2019-05-11T17:31:08.032Z,100929.78
2019-05-11T17:33:38.429Z,100939.42
2019-05-11T17:36:08.479Z,100950.97
2019-05-11T17:38:38.932Z,100973.84
2019-05-11T17:41:08.464Z,100977.45
2019-05-11T17:43:38.688Z,100979.44
2019-05-11T17:46:08.169Z,100977.92
2019-05-11T17:48:38.792Z,100966.65
2019-05-11T17:51:20.596Z,100964.05
2019-05-11T17:53:37.796Z,100965.70
2019-05-11T17:56:06.488Z,100975.55
2019-05-11T17:58:34.993Z,100978.30
2019-05-11T18:01:03.570Z,100974.78
2019-05-11T18:03:32.056Z,100977.64
2019-05-11T18:06:00.642Z,100989.46
2019-05-11T18:08:30.866Z,100990.41
2019-05-11T18:10:59.743Z,100987.59
2019-05-11T18:13:28.582Z,100992.33
2019-05-11T18:15:57.785Z,100997.00
2019-05-11T18:18:28.933Z,100994.79
2019-05-11T18:20:58.210Z,100991.70
2019-05-11T18:23:28.264Z,101000.84
2019-05-11T18:25:57.011Z,101003.63
2019-05-11T18:28:25.857Z,101006.88
2019-05-11T18:30:54.482Z,101008.31
2019-05-11T18:33:22.979Z,101017.38
2019-05-11T18:35:51.530Z,101019.58
2019-05-11T18:38:20.038Z,101023.74
2019-05-11T18:40:48.773Z,101030.02
2019-05-11T18:43:18.818Z,101034.89
2019-05-11T18:45:48.825Z,101031.53
2019-05-11T18:48:18.578Z,101041.88
2019-05-11T18:50:49.102Z,101045.94
2019-05-11T18:53:18.720Z,101042.75
2019-05-11T18:55:52.962Z,101034.78
2019-05-11T18:58:29.456Z,101044.89
2019-05-11T19:00:59.675Z,101051.26
2019-05-11T19:03:28.310Z,101053.52
2019-05-11T19:05:57.722Z,101059.51
2019-05-11T19:08:29.368Z,101067.45
2019-05-11T19:11:15.601Z,101074.42
2019-05-11T19:13:47.833Z,101088.98
2019-05-11T19:16:20.240Z,101098.95
2019-05-11T19:18:52.372Z,101110.48
2019-05-11T19:21:21.279Z,101122.56
2019-05-11T19:23:52.110Z,101129.46
2019-05-11T19:26:21.205Z,101123.55
2019-05-11T19:28:49.679Z,101135.03
2019-05-11T19:31:19.357Z,101128.48
2019-05-11T19:33:48.885Z,101136.44
2019-05-11T19:36:17.607Z,101141.10
2019-05-11T19:38:47.859Z,101137.22
2019-05-11T19:41:18.470Z,101137.27
2019-05-11T19:43:48.263Z,101141.75
2019-05-11T19:46:18.360Z,101142.88
2019-05-11T19:48:47.528Z,101151.91
2019-05-11T19:51:18.280Z,101158.52
2019-05-11T19:53:48.282Z,101161.84
2019-05-11T19:56:18.246Z,101166.47
2019-05-11T19:58:48.493Z,101168.48
2019-05-11T20:01:18.810Z,101171.98
2019-05-11T20:03:47.467Z,101170.13
2019-05-11T20:06:16.025Z,101177.23
2019-05-11T20:08:44.538Z,101178.05
2019-05-11T20:11:13.079Z,101176.45
2019-05-11T20:13:41.585Z,101179.49
2019-05-11T20:16:10.569Z,101177.59
2019-05-11T20:18:39.008Z,101176.72
2019-05-11T20:21:16.785Z,101180.81
2019-05-11T20:23:38.049Z,101187.17
2019-05-11T20:26:08.833Z,101193.20
2019-05-11T20:28:37.827Z,101190.73
2019-05-11T20:31:08.021Z,101195.71
2019-05-11T20:33:38.541Z,101206.94
2019-05-11T20:36:08.622Z,101206.93
2019-05-11T20:38:38.384Z,101209.19
2019-05-11T20:41:08.315Z,101215.44
2019-05-11T20:43:36.923Z,101213.82
2019-05-11T20:46:08.035Z,101215.94
2019-05-11T20:48:38.059Z,101220.64
2019-05-11T20:51:07.978Z,101226.67
2019-05-11T20:53:36.031Z,101229.16
2019-05-11T20:56:04.549Z,101230.54
2019-05-11T20:58:34.653Z,101232.73
2019-05-11T21:01:03.215Z,101238.78
2019-05-11T21:03:31.677Z,101242.34
2019-05-11T21:06:00.176Z,101256.86
2019-05-11T21:08:29.009Z,101263.72
2019-05-11T21:10:58.141Z,101271.40
2019-05-11T21:13:28.221Z,101277.98
2019-05-11T21:15:59.117Z,101279.89
2019-05-11T21:18:28.765Z,101277.17
2019-05-11T21:20:57.781Z,101284.55
2019-05-11T21:23:28.822Z,101286.46
2019-05-11T21:25:56.591Z,101295.25
2019-05-11T21:28:25.052Z,101299.36
2019-05-11T21:30:53.612Z,101303.47
2019-05-11T21:33:22.055Z,101308.95
2019-05-11T21:35:50.577Z,101309.23
2019-05-11T21:38:19.042Z,101318.25
2019-05-11T21:40:48.543Z,101321.28
2019-05-11T21:43:17.091Z,101325.94
2019-05-11T21:45:45.596Z,101327.58
2019-05-11T21:48:14.045Z,101332.23
2019-05-11T21:50:42.512Z,101333.88
2019-05-11T21:53:11.003Z,101344.03
2019-05-11T21:55:39.466Z,101352.23
2019-05-11T21:58:09.057Z,101350.05
2019-05-11T22:00:38.734Z,101351.14
2019-05-11T22:03:09.863Z,101352.75
2019-05-11T22:05:38.128Z,101350.55
2019-05-11T22:08:08.562Z,101352.50
2019-05-11T22:10:38.518Z,101347.04
2019-05-11T22:13:07.286Z,101349.50
2019-05-11T22:15:38.343Z,101352.76
2019-05-11T22:18:08.007Z,101355.26
2019-05-11T22:20:40.502Z,101355.52
2019-05-11T22:23:08.385Z,101359.07
2019-05-11T22:25:38.184Z,101367.58
2019-05-11T22:28:08.453Z,101373.30
2019-05-11T22:30:39.068Z,101384.23
2019-05-11T22:33:08.821Z,101392.75
2019-05-11T22:35:37.780Z,101396.83
2019-05-11T22:38:08.182Z,101395.47
2019-05-11T22:40:38.437Z,101401.26
2019-05-11T22:43:09.364Z,101406.17
2019-05-11T22:45:38.273Z,101404.77
2019-05-11T22:48:07.909Z,101407.30
2019-05-11T22:50:38.257Z,101404.80
2019-05-11T22:53:08.746Z,101404.25
2019-05-11T22:55:38.179Z,101410.55
2019-05-11T22:58:08.472Z,101407.30
2019-05-11T23:00:42.062Z,101407.26
2019-05-11T23:03:10.949Z,101412.72
2019-05-11T23:05:40.670Z,101420.08
2019-05-11T23:08:09.158Z,101414.86
2019-05-11T23:10:38.711Z,101421.70
2019-05-11T23:13:08.325Z,101425.84
2019-05-11T23:15:40.321Z,101430.75
2019-05-11T23:18:08.759Z,101437.33
2019-05-11T23:20:38.599Z,101432.14
2019-05-11T23:23:08.788Z,101439.83
2019-05-11T23:25:37.734Z,101443.94
2019-05-11T23:28:06.280Z,101445.55
2019-05-11T23:30:34.714Z,101448.27
2019-05-11T23:33:03.335Z,101449.91
2019-05-11T23:35:31.807Z,101447.75
2019-05-11T23:38:00.366Z,101444.70
2019-05-11T23:40:28.808Z,101455.69
2019-05-11T23:42:57.924Z,101457.59
2019-05-11T23:45:27.974Z,101459.80
2019-05-11T23:47:58.890Z,101464.70
2019-05-11T23:50:28.082Z,101460.57
2019-05-11T23:53:05.977Z,101466.61
2019-05-11T23:55:29.040Z,101455.88
2019-05-11T23:57:57.938Z,101464.39
